createdAt,value
2022-12-19T00:00:24.386Z,13.50
2022-12-19T00:01:29.702Z,14.20
2022-12-19T00:02:33.434Z,11.50
2022-12-19T00:03:36.148Z,14.40
2022-12-19T00:04:38.184Z,10.00
2022-12-19T00:05:40.980Z,15.20
2022-12-19T00:06:44.025Z,15.20
2022-12-19T00:07:48.784Z,13.80
2022-12-19T00:08:52.219Z,12.80
2022-12-19T00:09:54.055Z,8.70
2022-12-19T00:11:00.290Z,14.80
2022-12-19T00:12:02.138Z,11.00
2022-12-19T00:13:03.810Z,17.33
2022-12-19T00:14:06.583Z,21.56
2022-12-19T00:15:09.336Z,20.80
2022-12-19T00:16:14.419Z,13.18
2022-12-19T00:17:18.215Z,11.00
2022-12-19T00:18:20.338Z,7.22
2022-12-19T00:19:22.137Z,7.40
2022-12-19T00:20:23.865Z,9.33
2022-12-19T00:21:30.837Z,9.78
2022-12-19T00:22:34.430Z,6.10
2022-12-19T00:23:36.199Z,14.56
2022-12-19T00:24:37.945Z,15.00
2022-12-19T00:25:40.166Z,14.44
2022-12-19T00:26:43.357Z,13.30
2022-12-19T00:27:45.461Z,16.78
2022-12-19T00:28:50.955Z,19.11
2022-12-19T00:29:52.790Z,15.50
2022-12-19T00:30:55.181Z,6.67
2022-12-19T00:31:58.576Z,11.30
2022-12-19T00:33:00.430Z,11.56
2022-12-19T00:34:02.835Z,6.56
2022-12-19T00:35:05.220Z,12.80
2022-12-19T00:36:16.483Z,16.50
2022-12-19T00:37:19.978Z,7.10
2022-12-19T00:38:22.099Z,8.89
2022-12-19T00:39:24.233Z,7.50
2022-12-19T00:40:26.118Z,9.70
2022-12-19T00:41:33.279Z,11.44
2022-12-19T00:42:35.208Z,8.80
2022-12-19T00:43:38.240Z,4.56
2022-12-19T00:44:40.192Z,8.20
2022-12-19T00:45:41.979Z,8.56
2022-12-19T00:46:45.151Z,10.78
2022-12-19T00:47:49.149Z,12.00
2022-12-19T00:48:50.975Z,15.56
2022-12-19T00:49:54.737Z,9.44
2022-12-19T00:51:15.026Z,7.40
2022-12-19T00:52:17.766Z,14.30
2022-12-19T00:53:19.577Z,14.50
2022-12-19T00:54:21.495Z,13.11
2022-12-19T00:55:23.472Z,8.00
2022-12-19T00:56:31.192Z,8.44
2022-12-19T00:57:34.924Z,11.60
2022-12-19T00:58:36.791Z,11.11
2022-12-19T00:59:38.416Z,10.67
2022-12-19T01:00:40.700Z,14.78
2022-12-19T01:01:44.364Z,11.10
2022-12-19T01:02:48.710Z,12.90
2022-12-19T01:04:26.158Z,9.80
2022-12-19T01:04:54.795Z,19.90
2022-12-19T01:05:56.516Z,15.00
2022-12-19T01:07:03.108Z,14.40
2022-12-19T01:08:10.086Z,12.90
2022-12-19T01:09:13.277Z,6.22
2022-12-19T01:10:17.777Z,16.40
2022-12-19T01:11:20.394Z,14.40
2022-12-19T01:12:24.670Z,20.70
2022-12-19T01:13:29.396Z,17.30
2022-12-19T01:14:31.446Z,13.80
2022-12-19T01:15:33.081Z,11.67
2022-12-19T01:16:34.985Z,11.44
2022-12-19T01:17:43.728Z,9.44
2022-12-19T01:18:40.687Z,12.40
2022-12-19T01:19:44.629Z,9.11
2022-12-19T01:20:46.143Z,7.70
2022-12-19T01:21:48.062Z,17.89
2022-12-19T01:22:50.242Z,10.33
2022-12-19T01:23:52.610Z,12.50
2022-12-19T01:24:54.573Z,12.20
2022-12-19T01:25:58.955Z,9.33
2022-12-19T01:27:05.043Z,8.70
2022-12-19T01:29:51.827Z,5.50
2022-12-19T01:30:46.072Z,13.80
2022-12-19T01:31:50.555Z,5.70
2022-12-19T01:32:52.373Z,7.89
2022-12-19T01:33:54.872Z,8.50
2022-12-19T01:34:56.836Z,4.70
2022-12-19T01:35:58.580Z,6.56
2022-12-19T01:37:00.611Z,8.00
2022-12-19T01:38:08.523Z,6.18
2022-12-19T01:39:08.318Z,8.20
2022-12-19T01:40:12.102Z,8.33
2022-12-19T01:41:14.535Z,11.10
2022-12-19T01:42:23.096Z,13.00
2022-12-19T01:43:28.099Z,6.00
2022-12-19T01:44:31.350Z,6.60
2022-12-19T01:45:36.685Z,8.40
2022-12-19T01:46:45.222Z,13.60
2022-12-19T01:48:05.912Z,10.40
2022-12-19T01:49:17.915Z,10.80
2022-12-19T01:50:28.370Z,8.00
2022-12-19T01:51:42.773Z,16.60
2022-12-19T01:52:45.813Z,10.50
2022-12-19T01:53:51.509Z,13.30
2022-12-19T01:54:53.439Z,16.40
2022-12-19T01:55:55.784Z,10.11
2022-12-19T01:56:59.239Z,6.30
2022-12-19T01:58:03.025Z,6.70
2022-12-19T02:00:23.252Z,14.20
2022-12-19T02:01:26.521Z,10.36
2022-12-19T02:02:34.903Z,5.00
2022-12-19T02:03:37.867Z,11.90
2022-12-19T02:04:44.121Z,5.90
2022-12-19T02:05:46.063Z,6.60
2022-12-19T02:06:49.944Z,9.30
2022-12-19T02:07:52.453Z,4.70
2022-12-19T02:08:55.254Z,13.70
2022-12-19T02:09:58.089Z,12.60
2022-12-19T02:11:01.834Z,6.70
2022-12-19T02:12:05.470Z,10.30
2022-12-19T02:13:09.793Z,6.10
2022-12-19T03:52:28.607Z,13.00
2022-12-19T03:53:50.549Z,9.70
2022-12-19T06:08:25.809Z,10.18
2022-12-19T06:09:28.074Z,16.40
2022-12-19T06:10:30.011Z,16.44
2022-12-19T06:11:32.116Z,23.33
2022-12-19T06:12:34.065Z,14.22
2022-12-19T06:13:37.163Z,9.33
2022-12-19T06:14:39.425Z,20.64
2022-12-19T06:15:41.298Z,24.40
2022-12-19T06:16:43.173Z,29.67
2022-12-19T06:17:44.981Z,32.33
2022-12-19T06:18:47.209Z,33.33
2022-12-19T06:19:49.198Z,31.20
2022-12-19T06:21:04.131Z,35.11
2022-12-19T06:22:05.999Z,32.30
2022-12-19T06:23:08.048Z,33.22
2022-12-19T06:24:10.951Z,38.73
2022-12-19T06:25:12.933Z,25.11
2022-12-19T06:26:20.000Z,28.11
2022-12-19T06:27:21.812Z,32.60
2022-12-19T06:28:25.486Z,30.20
2022-12-19T06:29:27.443Z,26.40
2022-12-19T06:30:29.452Z,28.00
2022-12-19T06:31:31.449Z,35.67
2022-12-19T06:32:37.714Z,33.89
2022-12-19T06:33:37.173Z,47.70
2022-12-19T06:35:03.240Z,42.00
2022-12-19T06:35:43.059Z,39.20
2022-12-19T06:36:44.947Z,44.50
2022-12-19T06:37:48.083Z,46.22
2022-12-19T06:38:50.907Z,36.27
2022-12-19T06:39:52.851Z,38.18
2022-12-19T06:40:55.171Z,36.44
2022-12-19T06:41:57.202Z,10.11
2022-12-19T06:42:59.169Z,30.00
2022-12-19T06:44:03.411Z,28.56
2022-12-19T06:45:07.191Z,44.50
2022-12-19T06:46:09.629Z,40.30
2022-12-19T06:47:11.611Z,38.20
2022-12-19T06:48:13.581Z,40.22
2022-12-19T06:49:15.337Z,36.33
2022-12-19T06:50:17.550Z,41.11
2022-12-19T06:51:20.029Z,48.67
2022-12-19T06:52:22.123Z,43.40
2022-12-19T06:53:24.186Z,44.30
2022-12-19T06:54:26.583Z,44.90
2022-12-19T06:55:28.453Z,52.00
2022-12-19T06:56:36.144Z,42.44
2022-12-19T06:57:38.327Z,38.20
2022-12-19T06:58:40.481Z,48.78
2022-12-19T06:59:42.221Z,44.11
2022-12-19T07:00:44.457Z,52.78
2022-12-19T07:02:02.229Z,36.10
2022-12-19T07:03:07.691Z,40.60
2022-12-19T07:04:12.728Z,37.70
2022-12-19T07:05:14.834Z,48.60
2022-12-19T07:06:17.377Z,43.89
2022-12-19T07:07:19.854Z,50.00
2022-12-19T07:08:21.957Z,47.50
2022-12-19T07:09:25.140Z,39.22
2022-12-19T07:10:27.533Z,35.60
2022-12-19T08:26:24.159Z,24.40
2022-12-19T08:27:27.370Z,21.20
2022-12-19T08:28:31.459Z,9.78
2022-12-19T08:29:33.562Z,15.30
2022-12-19T08:30:40.558Z,20.00
2022-12-19T08:31:42.487Z,14.20
2022-12-19T08:32:45.054Z,18.56
2022-12-19T08:33:47.033Z,15.10
2022-12-19T08:34:49.995Z,18.11
2022-12-19T08:35:52.030Z,23.55
2022-12-19T08:36:53.881Z,18.00
2022-12-19T08:37:55.582Z,20.89
2022-12-19T08:38:57.425Z,15.11
2022-12-19T08:40:00.533Z,24.20
2022-12-19T08:41:03.145Z,21.50
2022-12-19T08:42:05.168Z,19.60
2022-12-19T08:43:06.912Z,17.44
2022-12-19T08:44:11.003Z,13.89
2022-12-19T08:45:13.064Z,16.30
2022-12-19T08:46:15.813Z,27.90
2022-12-19T08:47:17.910Z,22.70
2022-12-19T08:48:20.178Z,18.40
2022-12-19T08:49:22.062Z,24.78
2022-12-19T08:50:24.145Z,17.67
2022-12-19T08:51:26.021Z,18.33
2022-12-19T08:52:28.027Z,25.00
2022-12-19T08:53:32.478Z,22.33
2022-12-19T08:54:34.558Z,25.50
2022-12-19T08:55:36.303Z,23.89
2022-12-19T08:56:43.588Z,22.56
2022-12-19T08:57:42.902Z,20.90
2022-12-19T08:58:45.670Z,23.56
2022-12-19T08:59:47.953Z,27.70
2022-12-19T09:00:56.523Z,31.00
2022-12-19T09:01:57.377Z,23.60
2022-12-19T09:03:00.017Z,15.90
2022-12-19T09:05:50.889Z,18.60
2022-12-19T09:05:58.411Z,22.20
2022-12-19T09:06:19.084Z,24.10
2022-12-19T09:07:16.883Z,16.30
2022-12-19T09:08:18.635Z,25.40
2022-12-19T09:09:20.360Z,25.00
2022-12-19T09:10:22.199Z,24.00
2022-12-19T09:11:24.475Z,21.33
2022-12-19T09:12:26.619Z,27.60
2022-12-19T09:13:29.925Z,23.00
2022-12-19T09:14:34.086Z,26.20
2022-12-19T09:15:35.889Z,17.50
2022-12-19T09:16:39.322Z,24.80
2022-12-19T09:17:41.450Z,19.40
2022-12-19T09:18:48.792Z,23.10
2022-12-19T09:19:50.132Z,23.10
2022-12-19T09:20:55.581Z,23.22
2022-12-19T09:21:57.420Z,21.80
2022-12-19T09:22:59.037Z,19.33
2022-12-19T09:24:07.483Z,27.22
2022-12-19T09:25:05.557Z,19.20
2022-12-19T09:26:12.402Z,20.30
2022-12-19T09:27:14.957Z,16.00
2022-12-19T09:28:27.393Z,14.60
2022-12-19T09:29:22.296Z,18.20
2022-12-19T09:30:24.529Z,22.18
2022-12-19T09:31:28.009Z,19.27
2022-12-19T09:32:30.054Z,18.40
2022-12-19T09:33:41.206Z,21.50
2022-12-19T09:34:39.110Z,20.10
2022-12-19T09:35:45.015Z,22.00
2022-12-19T09:36:47.105Z,17.10
2022-12-19T09:37:49.384Z,21.80
2022-12-19T09:38:55.778Z,21.00
2022-12-19T09:39:58.910Z,19.20
2022-12-19T09:41:05.043Z,21.20
2022-12-19T09:42:23.311Z,20.60
2022-12-19T09:43:28.811Z,18.50
2022-12-19T09:44:40.320Z,24.20
2022-12-19T09:46:04.351Z,14.80
2022-12-19T09:47:19.164Z,20.30
2022-12-19T09:48:24.439Z,17.90
2022-12-19T09:49:41.667Z,21.10
2022-12-19T09:51:10.070Z,20.20
2022-12-19T09:52:13.715Z,20.30
2022-12-19T09:53:24.972Z,17.90
2022-12-19T09:54:36.717Z,21.60
2022-12-19T09:55:41.009Z,20.60
2022-12-19T09:56:45.660Z,18.00
2022-12-19T09:58:00.548Z,17.80
2022-12-19T09:59:13.931Z,19.80
2022-12-19T10:00:19.412Z,19.20
2022-12-19T10:01:25.183Z,21.80
2022-12-19T10:02:34.150Z,19.80
2022-12-19T14:22:52.531Z,69.10
2022-12-19T14:24:19.350Z,74.10
2022-12-19T14:28:14.850Z,80.10
2022-12-19T14:28:17.937Z,88.60
2022-12-19T14:28:20.125Z,84.40
2022-12-19T14:28:54.391Z,92.00
2022-12-19T14:30:30.881Z,90.30
2022-12-19T14:31:01.401Z,81.20
2022-12-19T14:33:21.991Z,87.30
2022-12-19T14:33:45.854Z,87.90
2022-12-19T14:34:47.120Z,74.10
2022-12-19T14:36:07.878Z,78.80
2022-12-19T14:36:50.747Z,75.20
2022-12-19T14:39:20.361Z,73.10
2022-12-19T14:39:25.134Z,76.70
2022-12-19T14:40:25.708Z,80.60
2022-12-19T14:41:31.397Z,78.30
2022-12-19T14:43:57.345Z,77.00
2022-12-19T14:44:00.527Z,71.10
2022-12-19T14:52:08.736Z,69.00
2022-12-19T14:54:00.205Z,80.60
2022-12-19T14:54:03.814Z,71.90
2022-12-19T14:54:40.197Z,74.40
2022-12-19T14:57:06.245Z,64.00
2022-12-19T14:58:53.099Z,72.40
2022-12-19T14:59:32.855Z,59.60
2022-12-19T15:01:08.375Z,53.00
2022-12-19T15:02:07.520Z,51.00
2022-12-19T15:03:16.114Z,53.80
2022-12-19T15:04:53.257Z,57.60
2022-12-19T15:05:24.797Z,52.20
2022-12-19T15:07:07.430Z,54.90
2022-12-19T15:07:34.633Z,38.70
2022-12-19T15:09:02.592Z,40.10
2022-12-19T15:11:00.906Z,49.40
2022-12-19T15:11:16.163Z,53.10
2022-12-19T15:14:46.608Z,52.10
2022-12-19T15:14:46.785Z,52.90
2022-12-19T15:14:56.173Z,57.00
2022-12-19T15:15:47.913Z,54.90
2022-12-19T15:17:10.211Z,64.20
2022-12-19T15:18:19.274Z,63.30
2022-12-19T15:19:21.324Z,53.90
2022-12-19T15:20:23.922Z,65.20
2022-12-19T15:21:27.214Z,63.90
2022-12-19T15:22:29.199Z,56.30
2022-12-19T15:23:32.094Z,62.20
2022-12-19T15:24:34.133Z,57.45
2022-12-19T15:26:02.829Z,69.33
2022-12-19T15:26:52.008Z,62.80
2022-12-19T15:27:54.555Z,58.80
2022-12-19T15:28:57.159Z,55.00
2022-12-19T15:29:59.585Z,61.50
2022-12-19T15:31:23.655Z,63.50
2022-12-19T15:32:27.003Z,56.70
2022-12-19T15:33:29.167Z,63.60
2022-12-19T15:34:35.848Z,67.89
2022-12-19T15:35:36.570Z,71.30
2022-12-19T15:36:38.676Z,68.20
2022-12-19T15:37:40.906Z,67.22
2022-12-19T15:38:42.889Z,69.90
2022-12-19T15:39:45.023Z,68.33
2022-12-19T15:40:47.791Z,72.60
2022-12-19T15:41:53.943Z,72.40
2022-12-19T15:42:58.238Z,70.30
2022-12-19T15:44:09.843Z,67.40
2022-12-19T15:45:15.681Z,67.10
2022-12-19T15:46:17.901Z,64.80
2022-12-19T15:47:36.788Z,72.44
2022-12-19T15:48:41.847Z,75.00
2022-12-19T15:49:43.905Z,83.10
2022-12-19T15:50:46.563Z,82.56
2022-12-19T15:51:50.472Z,85.90
2022-12-19T15:52:55.724Z,85.50
2022-12-19T15:54:15.523Z,85.10
2022-12-19T15:55:02.388Z,88.80
2022-12-19T15:56:07.135Z,82.90
2022-12-19T15:57:16.245Z,94.20
2022-12-19T15:58:19.794Z,87.60
2022-12-19T15:59:23.732Z,71.20
2022-12-19T16:00:32.848Z,85.30
2022-12-19T16:01:36.296Z,96.80
2022-12-19T16:03:21.066Z,93.60
2022-12-19T16:03:50.906Z,88.70
2022-12-19T16:04:54.490Z,87.90
2022-12-19T16:05:57.810Z,85.90
2022-12-19T16:07:14.129Z,84.90
2022-12-19T16:08:19.577Z,67.50
2022-12-19T16:09:38.849Z,67.20
2022-12-19T16:10:55.898Z,69.00
2022-12-19T16:12:22.236Z,82.60
2022-12-19T16:13:31.481Z,82.90
2022-12-19T16:14:33.749Z,75.20
2022-12-19T16:15:37.134Z,78.40
2022-12-19T16:16:40.733Z,78.00
2022-12-19T16:17:43.846Z,78.80
2022-12-19T16:18:46.769Z,70.91
2022-12-19T16:19:50.937Z,80.64
2022-12-19T16:20:53.399Z,74.90
2022-12-19T16:21:57.084Z,79.10
2022-12-19T16:22:59.507Z,80.50
2022-12-19T16:24:01.812Z,76.00
2022-12-19T16:25:07.668Z,78.20
2022-12-19T16:26:15.776Z,77.30
2022-12-19T16:27:24.541Z,78.40
2022-12-19T16:28:31.425Z,83.60
2022-12-19T16:29:42.101Z,84.70
2022-12-19T16:31:59.533Z,83.00
2022-12-19T16:45:23.047Z,86.90
2022-12-19T16:46:25.263Z,74.80
2022-12-19T16:47:27.832Z,81.40
2022-12-19T16:48:30.973Z,71.50
2022-12-19T16:49:33.517Z,74.50
2022-12-19T16:50:35.586Z,72.80
2022-12-19T16:51:37.819Z,64.33
2022-12-19T16:52:42.722Z,68.30
2022-12-19T16:53:43.842Z,62.80
2022-12-19T16:54:46.657Z,60.90
2022-12-19T16:55:49.788Z,66.89
2022-12-19T16:56:53.317Z,67.40
2022-12-19T16:57:56.289Z,70.70
2022-12-19T16:59:02.155Z,68.91
2022-12-19T17:00:06.233Z,64.80
2022-12-19T17:01:09.680Z,69.40
2022-12-19T17:02:19.233Z,65.80
2022-12-19T17:03:34.472Z,76.70
2022-12-19T17:04:41.833Z,71.80
2022-12-19T17:05:41.264Z,70.50
2022-12-19T17:06:44.212Z,43.33
2022-12-19T17:07:47.368Z,67.45
2022-12-19T17:08:49.725Z,75.30
2022-12-19T17:09:51.871Z,74.00
2022-12-19T17:10:54.844Z,75.00
2022-12-19T17:12:01.040Z,83.60
2022-12-19T17:13:03.690Z,80.00
2022-12-19T17:15:23.389Z,83.40
2022-12-19T17:16:25.890Z,81.90
2022-12-19T17:17:28.586Z,76.70
2022-12-19T17:18:36.220Z,87.00
2022-12-19T17:19:39.308Z,78.50
2022-12-19T17:20:43.458Z,70.30
2022-12-19T17:21:45.553Z,70.90
2022-12-19T17:22:48.172Z,71.00
2022-12-19T17:23:51.311Z,78.00
2022-12-19T17:24:53.446Z,63.36
2022-12-19T17:25:56.256Z,73.20
2022-12-19T17:26:58.410Z,70.30
2022-12-19T17:28:00.794Z,52.44
2022-12-19T17:29:02.797Z,73.80
2022-12-19T17:30:06.646Z,67.00
2022-12-19T17:32:33.498Z,67.20
2022-12-19T17:33:38.521Z,63.20
2022-12-19T17:34:40.629Z,64.40
2022-12-19T17:35:44.411Z,66.33
2022-12-19T17:36:47.225Z,64.70
2022-12-19T17:37:52.816Z,73.40
2022-12-19T17:39:00.229Z,71.60
2022-12-19T17:40:03.937Z,65.40
2022-12-19T17:41:08.351Z,77.10
2022-12-19T17:43:26.234Z,65.90
2022-12-19T17:44:29.190Z,60.70
2022-12-19T17:45:33.252Z,56.70
2022-12-19T17:46:36.255Z,57.70
2022-12-19T17:47:38.731Z,62.00
2022-12-19T17:48:40.611Z,63.00
2022-12-19T17:49:43.855Z,67.00
2022-12-19T17:50:47.044Z,73.10
2022-12-19T17:51:51.293Z,71.70
2022-12-19T17:52:54.563Z,69.90
2022-12-19T17:53:57.100Z,75.09
2022-12-19T17:54:58.935Z,64.80
2022-12-19T17:56:00.671Z,71.44
2022-12-19T17:57:02.637Z,70.89
2022-12-19T17:58:04.610Z,65.22
2022-12-19T17:59:06.535Z,67.78
2022-12-19T18:00:09.923Z,61.70
2022-12-19T18:01:22.846Z,65.50
2022-12-19T18:02:27.810Z,72.10
2022-12-19T18:03:30.628Z,64.00
2022-12-19T18:04:32.468Z,73.30
2022-12-19T18:05:36.249Z,66.11
2022-12-19T18:06:38.917Z,70.60
2022-12-19T18:07:40.699Z,60.60
2022-12-19T18:08:43.408Z,65.44
2022-12-19T18:09:45.501Z,73.40
2022-12-19T18:10:47.517Z,71.20
2022-12-19T18:11:51.795Z,36.22
2022-12-19T18:12:54.814Z,75.40
2022-12-19T18:13:57.845Z,80.91
2022-12-19T18:15:00.699Z,62.60
2022-12-19T18:16:04.283Z,58.30
2022-12-19T18:17:06.178Z,66.10
2022-12-19T18:18:14.155Z,68.70
2022-12-19T18:19:21.935Z,70.80
2022-12-19T18:20:31.924Z,59.30
2022-12-19T18:21:33.422Z,60.20
2022-12-19T18:22:35.780Z,70.18
2022-12-19T18:23:38.739Z,67.20
2022-12-19T18:24:41.650Z,72.50
2022-12-19T18:25:44.674Z,68.60
2022-12-19T18:26:46.667Z,76.90
2022-12-19T18:27:48.520Z,66.33
2022-12-19T18:28:50.350Z,67.11
2022-12-19T18:29:52.198Z,69.67
2022-12-19T18:30:58.140Z,57.56
2022-12-19T18:32:00.293Z,59.30
2022-12-19T18:33:04.008Z,67.40
2022-12-19T18:34:08.400Z,73.90
2022-12-19T18:35:20.154Z,71.60
2022-12-19T18:36:25.509Z,69.80
2022-12-19T18:37:27.570Z,70.80
2022-12-19T18:38:30.103Z,74.20
2022-12-19T18:39:31.891Z,68.80
2022-12-19T18:40:34.558Z,70.33
2022-12-19T18:41:36.670Z,68.90
2022-12-19T18:42:39.273Z,66.22
2022-12-19T18:43:41.054Z,73.50
2022-12-19T18:44:43.183Z,78.22
2022-12-19T18:45:47.855Z,64.56
2022-12-19T18:46:51.111Z,73.80
2022-12-19T18:47:57.456Z,73.90
2022-12-19T18:48:59.572Z,87.80
2022-12-19T18:50:02.520Z,69.70
2022-12-19T18:51:05.757Z,82.90
2022-12-19T18:52:10.427Z,69.40
2022-12-19T18:53:16.058Z,72.90
2022-12-19T18:54:20.996Z,57.60
2022-12-19T18:55:28.888Z,69.10
2022-12-19T18:56:31.516Z,71.00
2022-12-19T18:57:33.309Z,70.11
2022-12-19T18:58:36.388Z,71.78
2022-12-19T18:59:38.942Z,74.60
2022-12-19T19:00:41.091Z,76.67
2022-12-19T19:01:45.978Z,72.67
2022-12-19T19:03:03.445Z,71.20
2022-12-19T19:04:05.534Z,79.40
2022-12-19T20:12:44.934Z,71.50
2022-12-19T20:13:47.161Z,70.10
2022-12-19T20:14:49.269Z,70.80
2022-12-19T20:15:52.140Z,65.33
2022-12-19T20:16:55.445Z,69.27
2022-12-19T20:18:04.107Z,72.82
2022-12-19T20:19:08.323Z,59.50
2022-12-19T20:20:11.399Z,62.70
2022-12-19T20:21:14.105Z,71.73
2022-12-19T20:22:17.334Z,64.20
2022-12-19T20:23:19.640Z,72.30
2022-12-19T20:24:21.868Z,62.80
2022-12-19T20:25:24.184Z,69.00
2022-12-19T20:26:26.165Z,49.50
2022-12-19T20:27:33.536Z,64.89
2022-12-19T20:28:38.744Z,70.90
2022-12-19T20:29:41.228Z,73.30
2022-12-19T20:30:44.273Z,74.10
2022-12-19T20:31:46.877Z,35.70
2022-12-19T20:32:49.148Z,42.10
2022-12-19T20:33:53.490Z,68.33
2022-12-19T20:34:55.412Z,52.50
2022-12-19T20:36:03.811Z,71.00
2022-12-19T20:37:06.409Z,71.10
2022-12-19T20:38:08.406Z,74.60
2022-12-19T20:39:10.225Z,72.78
2022-12-19T20:40:12.230Z,74.00
2022-12-19T20:41:15.359Z,69.56
2022-12-19T20:42:17.901Z,76.45
2022-12-19T20:43:19.866Z,59.80
2022-12-19T20:44:24.420Z,75.22
2022-12-19T20:45:25.948Z,84.90
2022-12-19T20:46:29.193Z,72.70
2022-12-19T20:47:31.065Z,53.64
2022-12-19T20:48:33.255Z,73.44
2022-12-19T20:49:36.253Z,78.30
2022-12-19T20:50:42.885Z,64.40
2022-12-19T20:51:43.574Z,75.00
2022-12-19T20:52:45.483Z,71.10
2022-12-19T20:53:48.818Z,72.11
2022-12-19T20:54:50.748Z,68.90
2022-12-19T20:55:58.493Z,72.67
2022-12-19T20:57:09.779Z,66.90
2022-12-19T20:58:13.692Z,60.20
2022-12-19T20:59:16.347Z,74.60
2022-12-19T21:00:19.680Z,60.00
2022-12-19T21:01:28.541Z,65.30
2022-12-19T21:02:53.068Z,66.60
2022-12-19T21:03:39.543Z,63.80
2022-12-19T21:04:41.707Z,65.50
2022-12-19T21:05:47.469Z,72.67
2022-12-19T21:06:49.644Z,65.90
2022-12-19T21:07:51.409Z,59.70
2022-12-19T21:08:56.963Z,49.22
2022-12-19T21:09:59.470Z,55.80
2022-12-19T21:11:04.159Z,48.11
2022-12-19T21:12:06.870Z,65.50
2022-12-19T21:13:09.096Z,50.50
2022-12-19T21:14:11.089Z,45.40
2022-12-19T21:15:13.559Z,63.33
2022-12-19T21:16:18.524Z,68.50
2022-12-19T21:17:20.549Z,61.40
2022-12-19T21:18:24.193Z,55.44
2022-12-19T21:19:29.362Z,49.50
2022-12-19T21:20:36.133Z,45.67
2022-12-19T21:21:38.305Z,54.00
2022-12-19T21:22:40.633Z,55.89
